Time;durP1;ratioP1;P1;durP2;ratioP2;P2;SDS_P1;SDS_P2;PMS_P1;PMS_P2;Temp;Humidity;BMP_temperature;BMP_pressure;BME280_temperature;BME280_humidity;BME280_pressure;Samples;Min_cycle;Max_cycle;Signal;HPM_P1;HPM_P2
2023/06/03 00:00:13;;;;;;;2.00;1.25;;;24.80;44.60;;;;;;5035490;28;20083;-67
2023/06/03 00:02:39;;;;;;;1.90;1.20;;;24.80;44.60;;;;;;5035678;28;20160;-66
2023/06/03 00:05:05;;;;;;;2.13;1.30;;;24.70;44.60;;;;;;5036710;28;20151;-66
2023/06/03 00:07:30;;;;;;;1.75;1.15;;;24.70;44.60;;;;;;5035968;28;20022;-66
2023/06/03 00:09:56;;;;;;;1.90;1.30;;;24.70;44.60;;;;;;5035585;28;20044;-66
2023/06/03 00:12:21;;;;;;;1.55;1.13;;;24.70;44.60;;;;;;5037406;28;20027;-66
2023/06/03 00:14:47;;;;;;;1.92;1.23;;;24.80;44.60;;;;;;5033415;28;20032;-66
2023/06/03 00:17:15;;;;;;;1.70;1.10;;;24.70;44.60;;;;;;5037532;28;20417;-66
2023/06/03 00:19:41;;;;;;;1.45;1.13;;;24.70;44.60;;;;;;5036272;28;20484;-66
2023/06/03 00:22:07;;;;;;;1.75;1.20;;;24.70;44.50;;;;;;5038765;28;20032;-66
2023/06/03 00:24:33;;;;;;;1.40;1.20;;;24.70;44.50;;;;;;5035038;28;20481;-67
2023/06/03 00:26:59;;;;;;;2.40;1.20;;;24.70;44.60;;;;;;5036621;28;20125;-67
2023/06/03 00:29:25;;;;;;;1.55;1.02;;;24.70;44.60;;;;;;5034712;28;20049;-67
2023/06/03 00:31:51;;;;;;;1.67;1.10;;;24.70;44.60;;;;;;5037065;28;20499;-66
2023/06/03 00:34:17;;;;;;;1.77;1.17;;;24.70;44.60;;;;;;5043057;28;20021;-66
2023/06/03 00:36:43;;;;;;;1.80;1.20;;;24.70;44.60;;;;;;5018990;28;20417;-67
2023/06/03 00:39:10;;;;;;;1.75;1.20;;;24.70;44.60;;;;;;5035301;28;20493;-66
2023/06/03 00:41:35;;;;;;;2.38;1.10;;;24.70;44.60;;;;;;5038882;28;20021;-66
2023/06/03 00:44:01;;;;;;;1.98;1.30;;;24.70;44.60;;;;;;5035567;28;20033;-66
2023/06/03 00:46:28;;;;;;;1.70;1.15;;;24.70;44.60;;;;;;5036844;28;20029;-66
2023/06/03 00:48:53;;;;;;;1.60;1.20;;;24.70;44.60;;;;;;5038318;28;20024;-66
2023/06/03 00:51:21;;;;;;;1.60;1.20;;;24.70;44.60;;;;;;5035617;28;20096;-67
2023/06/03 00:53:47;;;;;;;1.90;1.13;;;24.70;45.10;;;;;;5034151;28;20115;-66
2023/06/03 00:56:15;;;;;;;1.88;1.10;;;24.70;44.60;;;;;;5035468;28;20025;-66
2023/06/03 00:58:41;;;;;;;1.85;1.10;;;24.70;44.60;;;;;;5037444;28;20167;-66
2023/06/03 01:01:07;;;;;;;1.85;1.10;;;24.70;44.60;;;;;;5017001;28;20116;-67
2023/06/03 01:03:32;;;;;;;1.55;1.00;;;24.70;44.60;;;;;;5035029;28;20037;-67
2023/06/03 01:06:28;;;;;;;1.42;1.10;;;24.60;44.60;;;;;;5014979;28;20082;-67
2023/06/03 01:09:09;;;;;;;1.50;1.08;;;24.60;44.50;;;;;;5031481;28;20014;-67
2023/06/03 01:11:59;;;;;;;1.77;1.10;;;24.60;44.60;;;;;;5011831;28;20090;-67
2023/06/03 01:14:24;;;;;;;1.50;1.10;;;24.60;44.50;;;;;;5037252;28;20497;-67
2023/06/03 01:16:52;;;;;;;1.70;1.20;;;24.60;44.60;;;;;;5035861;28;20021;-66
2023/06/03 01:19:47;;;;;;;1.60;1.10;;;24.60;44.60;;;;;;5035137;28;20080;-66
2023/06/03 01:22:15;;;;;;;1.33;1.00;;;24.60;44.60;;;;;;5026825;28;20040;-66
2023/06/03 01:24:42;;;;;;;1.90;1.20;;;24.60;44.60;;;;;;5033912;28;20435;-66
2023/06/03 01:27:10;;;;;;;1.67;1.40;;;24.60;44.60;;;;;;5035567;28;20018;-66
2023/06/03 01:29:41;;;;;;;1.20;1.10;;;24.60;44.60;;;;;;5035466;28;20033;-66
2023/06/03 01:32:10;;;;;;;1.45;1.10;;;24.60;44.60;;;;;;5034935;28;20116;-67
2023/06/03 01:34:37;;;;;;;1.73;1.00;;;24.60;44.60;;;;;;5017195;28;20029;-67
2023/06/03 01:37:03;;;;;;;1.63;1.02;;;24.60;44.60;;;;;;5035484;28;20064;-67
2023/06/03 01:39:30;;;;;;;1.83;1.15;;;24.60;44.60;;;;;;5035108;28;20389;-67
2023/06/03 01:41:56;;;;;;;1.40;1.10;;;24.60;44.60;;;;;;5016279;28;20025;-67
2023/06/03 01:44:21;;;;;;;1.50;1.10;;;24.60;44.60;;;;;;5034736;28;20036;-67
2023/06/03 01:46:47;;;;;;;1.60;1.20;;;24.60;44.60;;;;;;5033899;28;20092;-66
2023/06/03 01:49:13;;;;;;;1.40;1.10;;;24.60;44.60;;;;;;5016630;28;20032;-67
2023/06/03 01:51:39;;;;;;;1.50;1.08;;;24.50;44.60;;;;;;5033932;28;20116;-66
2023/06/03 01:54:05;;;;;;;1.27;1.02;;;24.60;44.70;;;;;;5032663;28;20129;-66
2023/06/03 01:56:30;;;;;;;1.80;1.10;;;24.50;45.10;;;;;;5037197;28;20048;-66
2023/06/03 01:58:56;;;;;;;1.50;1.08;;;24.60;44.60;;;;;;5034513;28;20465;-66
2023/06/03 02:01:21;;;;;;;1.50;1.08;;;24.60;44.60;;;;;;5035256;28;20397;-66
2023/06/03 02:03:47;;;;;;;1.45;1.05;;;24.60;44.60;;;;;;5001578;28;20060;-67
2023/06/03 02:06:14;;;;;;;1.48;1.10;;;24.60;44.60;;;;;;5035204;28;20036;-66
2023/06/03 02:08:39;;;;;;;1.88;1.20;;;24.50;44.60;;;;;;5034007;28;20380;-66
2023/06/03 02:11:05;;;;;;;1.38;1.10;;;24.50;44.60;;;;;;5040228;28;20021;-67
2023/06/03 02:13:30;;;;;;;1.88;1.30;;;24.50;44.60;;;;;;5038382;28;20488;-67
2023/06/03 02:15:56;;;;;;;1.40;1.10;;;24.50;44.60;;;;;;5038446;28;20116;-66
2023/06/03 02:18:22;;;;;;;1.50;1.13;;;24.50;44.60;;;;;;5033564;28;20481;-66
2023/06/03 02:20:48;;;;;;;1.65;1.10;;;24.50;44.60;;;;;;5034804;28;20396;-66
2023/06/03 02:23:14;;;;;;;1.45;1.05;;;24.50;44.60;;;;;;5031636;28;20037;-66
2023/06/03 02:25:40;;;;;;;1.63;1.10;;;24.50;44.70;;;;;;5016506;28;20066;-66
2023/06/03 02:28:07;;;;;;;1.67;1.10;;;24.50;44.60;;;;;;5003832;28;20025;-67
2023/06/03 02:30:33;;;;;;;1.42;1.02;;;24.50;44.60;;;;;;5019469;28;20036;-67
2023/06/03 02:32:59;;;;;;;1.38;1.10;;;24.50;44.70;;;;;;5000361;28;20484;-67
2023/06/03 02:35:25;;;;;;;1.83;1.13;;;24.50;44.70;;;;;;5034564;28;20053;-66
2023/06/03 02:37:50;;;;;;;1.67;1.20;;;24.50;44.70;;;;;;5037563;28;20031;-66
2023/06/03 02:40:16;;;;;;;1.05;0.90;;;24.50;44.70;;;;;;5032968;28;20079;-66
2023/06/03 02:42:42;;;;;;;1.30;1.00;;;24.50;44.70;;;;;;5035600;28;20033;-66
2023/06/03 02:45:08;;;;;;;1.67;1.10;;;24.50;44.70;;;;;;5029229;28;20190;-66
2023/06/03 02:47:34;;;;;;;1.95;1.20;;;24.50;44.70;;;;;;5033541;28;20024;-66
2023/06/03 02:50:00;;;;;;;1.75;1.10;;;24.50;44.70;;;;;;5032994;28;20540;-67
2023/06/03 02:52:25;;;;;;;1.65;1.10;;;24.50;44.70;;;;;;5032478;28;20029;-67
2023/06/03 02:54:51;;;;;;;1.45;1.00;;;24.50;44.70;;;;;;5033886;28;20246;-66
2023/06/03 02:57:17;;;;;;;1.60;1.05;;;24.40;44.70;;;;;;5037189;28;20029;-67
2023/06/03 02:59:43;;;;;;;1.85;1.10;;;24.40;44.70;;;;;;5014758;28;20057;-67
2023/06/03 03:02:09;;;;;;;1.70;1.17;;;24.50;44.70;;;;;;5033994;28;20033;-67
2023/06/03 03:04:36;;;;;;;1.00;0.90;;;24.40;44.60;;;;;;5032165;28;20029;-66
2023/06/03 03:07:05;;;;;;;1.08;0.90;;;24.50;44.70;;;;;;5034988;28;20566;-66
2023/06/03 03:09:31;;;;;;;1.77;1.10;;;24.40;44.60;;;;;;5034897;28;20127;-66
2023/06/03 03:11:56;;;;;;;1.40;1.00;;;24.40;44.60;;;;;;5018178;28;20064;-67
2023/06/03 03:14:22;;;;;;;1.90;1.20;;;24.40;44.70;;;;;;5034594;28;20060;-66
2023/06/03 03:16:48;;;;;;;1.48;1.00;;;24.40;44.70;;;;;;5002075;28;20079;-66
2023/06/03 03:19:14;;;;;;;1.27;1.05;;;24.40;44.70;;;;;;5016866;28;20064;-66
2023/06/03 03:21:39;;;;;;;1.85;1.00;;;24.40;44.70;;;;;;5037205;28;20021;-67
2023/06/03 03:24:06;;;;;;;1.50;1.00;;;24.40;44.70;;;;;;5017323;28;20036;-67
2023/06/03 03:26:32;;;;;;;1.10;1.00;;;24.40;44.70;;;;;;5031976;28;20036;-66
2023/06/03 03:28:58;;;;;;;1.38;1.00;;;24.40;44.70;;;;;;5028559;28;20410;-66
2023/06/03 03:31:26;;;;;;;1.30;1.10;;;24.40;44.70;;;;;;5029801;28;20093;-66
2023/06/03 03:33:51;;;;;;;1.58;1.10;;;24.40;44.70;;;;;;5016011;28;20044;-66
2023/06/03 03:36:21;;;;;;;1.75;1.17;;;24.40;44.70;;;;;;5034636;28;20025;-66
2023/06/03 03:39:03;;;;;;;1.42;0.90;;;24.40;44.70;;;;;;5035943;28;20021;-66
2023/06/03 03:41:30;;;;;;;1.23;1.00;;;24.40;44.70;;;;;;5013087;28;20065;-67
2023/06/03 03:43:55;;;;;;;1.58;1.08;;;24.40;44.70;;;;;;5033906;28;20393;-67
2023/06/03 03:46:21;;;;;;;1.17;1.00;;;24.40;44.70;;;;;;5018234;28;20029;-67
2023/06/03 03:48:47;;;;;;;1.52;1.10;;;24.40;44.70;;;;;;5032457;28;20018;-67
2023/06/03 03:51:13;;;;;;;1.35;1.02;;;24.30;44.70;;;;;;5034897;28;20100;-66
2023/06/03 03:53:47;;;;;;;1.58;1.00;;;24.30;44.70;;;;;;5032371;28;20038;-66
2023/06/03 03:56:17;;;;;;;1.20;1.08;;;24.30;44.70;;;;;;5040375;28;20107;-67
2023/06/03 03:58:44;;;;;;;1.70;1.10;;;24.30;44.70;;;;;;5038751;28;20133;-66
2023/06/03 04:01:18;;;;;;;1.23;0.95;;;24.30;44.70;;;;;;5040491;28;20057;-66
2023/06/03 04:03:49;;;;;;;1.30;1.00;;;24.30;44.70;;;;;;5034072;28;20152;-66
2023/06/03 04:06:27;;;;;;;1.60;1.10;;;24.30;44.70;;;;;;5038688;28;20396;-66
2023/06/03 04:08:54;;;;;;;1.70;1.15;;;24.30;44.70;;;;;;5037887;28;20026;-66
2023/06/03 04:11:43;;;;;;;1.60;1.10;;;24.30;44.70;;;;;;5038600;28;20108;-66
2023/06/03 04:14:16;;;;;;;;;;;24.30;44.70;;;;;;5023965;28;20374;-66
2023/06/03 04:16:48;;;;;;;1.90;1.10;;;24.30;44.70;;;;;;5038732;28;19915;-66
2023/06/03 04:19:19;;;;;;;1.13;0.98;;;24.30;44.70;;;;;;5035378;28;20485;-66
2023/06/03 04:21:45;;;;;;;1.30;1.00;;;24.30;44.70;;;;;;5039206;28;20044;-67
2023/06/03 04:24:11;;;;;;;1.95;1.30;;;24.30;44.70;;;;;;5034886;28;20751;-67
2023/06/03 04:26:38;;;;;;;1.30;1.00;;;24.30;44.70;;;;;;5039124;28;20030;-67
2023/06/03 04:29:04;;;;;;;1.45;1.10;;;24.30;45.40;;;;;;5002997;28;20021;-66
2023/06/03 04:31:29;;;;;;;1.55;1.10;;;24.30;44.70;;;;;;5031780;28;20028;-66
2023/06/03 04:33:55;;;;;;;1.20;0.98;;;24.30;44.70;;;;;;5016116;28;20178;-66
2023/06/03 04:36:21;;;;;;;1.90;1.00;;;24.30;44.70;;;;;;5035672;28;20080;-66
2023/06/03 04:38:47;;;;;;;1.70;1.13;;;24.30;44.70;;;;;;5039977;28;20104;-66
2023/06/03 04:41:15;;;;;;;1.58;1.00;;;24.30;44.80;;;;;;5020456;28;20035;-66
2023/06/03 04:43:43;;;;;;;1.60;1.10;;;24.20;44.70;;;;;;5036150;28;20053;-66
2023/06/03 04:46:10;;;;;;;1.58;1.00;;;24.20;44.70;;;;;;5037362;28;20042;-66
2023/06/03 04:48:41;;;;;;;2.20;1.20;;;24.30;44.80;;;;;;5006663;28;20039;-66
2023/06/03 04:51:07;;;;;;;1.58;1.10;;;24.30;44.80;;;;;;5004341;28;20051;-66
2023/06/03 04:53:34;;;;;;;1.67;1.20;;;24.20;44.70;;;;;;5036821;28;20031;-66
2023/06/03 04:56:03;;;;;;;1.58;1.10;;;24.20;44.70;;;;;;5037756;28;20018;-66
2023/06/03 04:58:29;;;;;;;1.35;1.05;;;24.20;44.70;;;;;;5037122;28;20609;-66
2023/06/03 05:00:55;;;;;;;1.65;1.00;;;24.20;44.70;;;;;;5036892;28;20046;-67
2023/06/03 05:03:22;;;;;;;1.40;1.00;;;24.20;44.70;;;;;;5004060;28;20079;-67
2023/06/03 05:05:47;;;;;;;1.25;0.98;;;24.20;44.70;;;;;;5037583;28;20061;-67
2023/06/03 05:08:14;;;;;;;1.50;1.08;;;24.20;44.70;;;;;;5037767;28;20075;-67
2023/06/03 05:10:40;;;;;;;2.00;1.20;;;24.20;44.70;;;;;;5036143;28;20044;-66
2023/06/03 05:13:06;;;;;;;2.17;1.02;;;24.20;44.70;;;;;;5024360;28;20435;-66
2023/06/03 05:15:33;;;;;;;1.38;1.00;;;24.20;44.70;;;;;;5038949;28;20407;-67
2023/06/03 05:18:00;;;;;;;1.85;1.15;;;24.20;44.80;;;;;;5036510;28;20669;-66
2023/06/03 05:20:26;;;;;;;2.47;1.10;;;24.20;44.70;;;;;;5038134;28;20485;-66
2023/06/03 05:22:52;;;;;;;1.55;1.00;;;24.20;44.70;;;;;;5037179;28;20033;-67
2023/06/03 05:25:17;;;;;;;1.45;1.00;;;24.20;44.80;;;;;;5036969;28;20378;-67
2023/06/03 05:27:43;;;;;;;1.58;1.10;;;24.20;44.70;;;;;;5037609;28;20060;-66
2023/06/03 05:30:09;;;;;;;1.88;1.30;;;24.20;44.70;;;;;;5038046;28;20025;-67
2023/06/03 05:32:35;;;;;;;1.80;1.17;;;24.10;44.70;;;;;;5036379;28;20411;-66
2023/06/03 05:35:01;;;;;;;1.48;1.00;;;24.20;44.80;;;;;;5017124;28;20117;-66
2023/06/03 05:37:26;;;;;;;1.42;1.00;;;24.10;44.70;;;;;;5017466;28;20500;-66
2023/06/03 05:39:52;;;;;;;1.90;1.20;;;24.10;44.70;;;;;;5036016;28;20079;-66
2023/06/03 05:42:17;;;;;;;1.90;1.08;;;24.10;44.80;;;;;;5037063;28;20492;-67
2023/06/03 05:44:43;;;;;;;1.20;0.90;;;24.10;44.80;;;;;;5033564;28;20512;-66
2023/06/03 05:47:08;;;;;;;1.73;1.10;;;24.10;44.70;;;;;;5020445;28;20036;-66
2023/06/03 05:49:34;;;;;;;1.60;1.10;;;24.10;44.70;;;;;;5036115;28;20064;-66
2023/06/03 05:52:00;;;;;;;1.23;0.95;;;24.10;44.70;;;;;;5037181;28;20476;-66
2023/06/03 05:54:28;;;;;;;1.00;0.90;;;24.10;44.70;;;;;;5036419;28;20064;-66
2023/06/03 05:56:56;;;;;;;1.55;1.00;;;24.20;44.80;;;;;;5028916;28;20465;-66
2023/06/03 05:59:21;;;;;;;1.67;1.10;;;24.10;44.70;;;;;;5035941;28;20108;-66
2023/06/03 06:01:47;;;;;;;1.65;1.10;;;24.10;44.70;;;;;;5036835;28;20153;-66
2023/06/03 06:04:13;;;;;;;1.42;1.00;;;24.10;44.70;;;;;;5019337;28;20424;-67
2023/06/03 06:06:38;;;;;;;1.92;1.00;;;24.10;44.70;;;;;;5034623;28;20099;-67
2023/06/03 06:09:04;;;;;;;2.22;1.20;;;24.10;44.70;;;;;;5019130;28;20517;-66
2023/06/03 06:11:30;;;;;;;1.45;1.10;;;24.10;44.70;;;;;;5032271;28;20105;-66
2023/06/03 06:13:55;;;;;;;2.40;1.30;;;24.10;44.70;;;;;;5035512;28;20026;-66
2023/06/03 06:16:21;;;;;;;2.13;1.17;;;24.10;44.70;;;;;;5034445;28;20075;-66
2023/06/03 06:18:47;;;;;;;1.92;1.30;;;24.10;44.70;;;;;;5034627;28;20042;-66
2023/06/03 06:21:15;;;;;;;2.30;1.30;;;24.10;44.70;;;;;;5038502;28;20116;-66
2023/06/03 06:23:44;;;;;;;1.48;1.00;;;24.10;44.70;;;;;;5032894;28;20035;-66
2023/06/03 06:26:13;;;;;;;1.83;1.10;;;24.10;44.70;;;;;;5034073;28;20026;-67
2023/06/03 06:28:39;;;;;;;1.92;1.17;;;24.10;44.70;;;;;;5031423;28;20041;-67
2023/06/03 06:31:05;;;;;;;1.77;1.10;;;24.10;44.70;;;;;;5039912;28;20040;-66
2023/06/03 06:33:33;;;;;;;1.83;1.30;;;24.10;44.70;;;;;;5035472;28;20025;-66
2023/06/03 06:36:37;;;;;;;1.52;1.10;;;24.10;44.70;;;;;;5018349;28;20354;-66
2023/06/03 06:39:04;;;;;;;1.60;1.13;;;24.10;44.70;;;;;;5034126;28;20049;-66
2023/06/03 06:41:36;;;;;;;1.58;1.10;;;24.10;44.80;;;;;;5034996;28;20029;-67
2023/06/03 06:44:01;;;;;;;1.50;1.00;;;24.10;44.80;;;;;;5018385;28;20083;-66
2023/06/03 06:46:27;;;;;;;1.60;1.05;;;24.10;44.80;;;;;;5035762;28;20017;-66
2023/06/03 06:48:53;;;;;;;1.40;1.10;;;24.10;44.80;;;;;;5031959;28;20500;-66
2023/06/03 06:51:19;;;;;;;1.60;1.10;;;24.10;44.80;;;;;;5030581;28;20551;-66
2023/06/03 06:53:51;;;;;;;2.13;1.10;;;24.10;44.80;;;;;;5019991;28;20029;-66
2023/06/03 06:56:17;;;;;;;1.85;1.15;;;24.10;44.80;;;;;;5031261;28;20440;-66
2023/06/03 06:58:43;;;;;;;1.63;1.08;;;24.10;44.80;;;;;;5019018;28;20553;-66
2023/06/03 07:01:09;;;;;;;1.77;1.10;;;24.10;44.80;;;;;;5021427;28;20132;-66
2023/06/03 07:03:35;;;;;;;1.98;1.17;;;24.00;44.80;;;;;;5032828;28;20022;-66
2023/06/03 07:06:01;;;;;;;1.77;1.17;;;24.00;44.70;;;;;;5032323;28;20357;-66
2023/06/03 07:08:27;;;;;;;1.45;1.10;;;24.00;44.70;;;;;;5034576;28;20092;-66
2023/06/03 07:10:58;;;;;;;3.17;1.30;;;24.10;44.80;;;;;;5028620;28;20025;-66
2023/06/03 07:13:24;;;;;;;1.58;1.00;;;24.00;44.70;;;;;;5001254;28;20021;-66
2023/06/03 07:15:50;;;;;;;2.30;1.40;;;24.00;44.70;;;;;;5033754;28;20099;-66
2023/06/03 07:18:16;;;;;;;2.28;1.27;;;24.00;44.80;;;;;;5036124;28;20075;-66
2023/06/03 07:20:44;;;;;;;1.70;1.13;;;24.00;44.80;;;;;;5019840;28;20060;-67
2023/06/03 07:23:12;;;;;;;2.17;1.17;;;24.00;44.80;;;;;;5022003;28;20029;-67
2023/06/03 07:25:45;;;;;;;1.67;1.00;;;24.00;44.80;;;;;;5031551;28;20078;-66
2023/06/03 07:28:16;;;;;;;1.45;1.15;;;24.00;44.80;;;;;;5027394;28;20021;-66
2023/06/03 07:30:43;;;;;;;1.63;1.20;;;24.00;44.80;;;;;;5033978;28;20354;-67
2023/06/03 07:33:21;;;;;;;1.55;1.10;;;24.00;44.80;;;;;;5036063;28;20445;-66
2023/06/03 07:35:52;;;;;;;1.75;1.20;;;24.00;44.80;;;;;;5004974;28;20477;-67
2023/06/03 07:38:37;;;;;;;2.05;1.25;;;24.00;44.80;;;;;;5038570;28;20049;-67
2023/06/03 07:41:07;;;;;;;1.95;1.20;;;24.00;44.80;;;;;;5041909;28;20032;-66
2023/06/03 07:43:38;;;;;;;1.83;1.13;;;24.00;44.80;;;;;;5038044;28;20026;-66
2023/06/03 07:46:05;;;;;;;1.85;1.15;;;24.00;44.80;;;;;;5017248;28;20036;-66
2023/06/03 07:48:33;;;;;;;2.28;1.20;;;24.00;44.80;;;;;;5034149;28;20027;-66
2023/06/03 07:50:58;;;;;;;1.42;1.10;;;24.00;44.80;;;;;;5040593;28;20055;-66
2023/06/03 07:53:25;;;;;;;2.08;1.20;;;24.00;45.10;;;;;;5038433;28;20036;-66
2023/06/03 07:55:51;;;;;;;1.20;0.95;;;24.00;44.90;;;;;;5034412;28;20022;-66
2023/06/03 07:58:17;;;;;;;1.90;1.20;;;24.00;44.90;;;;;;5037974;28;20028;-66
2023/06/03 08:00:52;;;;;;;1.73;1.20;;;24.00;45.40;;;;;;5036609;28;20033;-66
2023/06/03 08:03:19;;;;;;;1.50;1.10;;;24.00;44.90;;;;;;5034554;28;20022;-66
2023/06/03 08:05:47;;;;;;;2.00;1.30;;;24.00;44.90;;;;;;5029333;28;20064;-66
2023/06/03 08:08:16;;;;;;;1.63;1.10;;;24.00;44.90;;;;;;5003027;28;20368;-66
2023/06/03 08:10:46;;;;;;;2.58;1.23;;;24.00;44.90;;;;;;5033541;28;20021;-66
2023/06/03 08:13:11;;;;;;;;;;;24.00;44.90;;;;;;5037461;28;20543;-66
2023/06/03 08:15:38;;;;;;;2.00;1.20;;;24.00;44.90;;;;;;5036070;28;19912;-66
2023/06/03 08:18:08;;;;;;;1.70;1.13;;;23.90;44.80;;;;;;5031556;28;20021;-66
2023/06/03 08:20:38;;;;;;;1.85;1.20;;;24.00;44.90;;;;;;5003545;28;20030;-66
2023/06/03 08:23:04;;;;;;;1.75;1.20;;;24.00;44.90;;;;;;5030829;28;20725;-66
2023/06/03 08:25:30;;;;;;;1.80;1.20;;;24.00;44.90;;;;;;5035558;28;20466;-66
2023/06/03 08:27:56;;;;;;;2.25;1.23;;;24.00;44.90;;;;;;5034898;28;20108;-66
2023/06/03 08:30:23;;;;;;;1.98;1.20;;;24.00;44.90;;;;;;5034039;28;20141;-67
2023/06/03 08:32:50;;;;;;;1.65;1.20;;;24.00;44.90;;;;;;5007144;28;20052;-67
2023/06/03 08:35:19;;;;;;;1.95;1.20;;;24.00;44.90;;;;;;5034857;28;20381;-66
2023/06/03 08:37:44;;;;;;;1.70;1.30;;;23.90;44.90;;;;;;5037530;28;20509;-66
2023/06/03 08:40:11;;;;;;;2.10;1.23;;;23.90;44.90;;;;;;5036129;28;20029;-66
2023/06/03 08:42:48;;;;;;;1.38;1.00;;;24.00;44.90;;;;;;5038862;28;20025;-66
2023/06/03 08:45:17;;;;;;;2.85;1.33;;;24.00;45.00;;;;;;5036271;28;20032;-66
2023/06/03 08:48:00;;;;;;;1.83;1.25;;;24.00;45.00;;;;;;5034963;28;20026;-66
2023/06/03 08:50:27;;;;;;;1.95;1.20;;;24.00;45.00;;;;;;5034070;28;20068;-66
2023/06/03 08:52:54;;;;;;;1.75;1.20;;;24.00;44.90;;;;;;5037299;28;20025;-66
2023/06/03 08:55:21;;;;;;;1.40;1.10;;;24.00;45.00;;;;;;5035752;28;20515;-66
2023/06/03 08:58:01;;;;;;;2.72;1.67;;;24.00;45.00;;;;;;5038199;28;20029;-66
2023/06/03 09:00:28;;;;;;;1.58;1.10;;;24.00;45.00;;;;;;5037618;28;20036;-66
2023/06/03 09:02:54;;;;;;;1.80;1.42;;;24.00;45.00;;;;;;5035528;28;20032;-66
2023/06/03 09:05:21;;;;;;;2.15;1.30;;;24.00;45.50;;;;;;5034932;28;20030;-66
2023/06/03 09:07:47;;;;;;;1.80;1.20;;;24.00;45.00;;;;;;5036852;28;20115;-66
2023/06/03 09:10:17;;;;;;;1.17;1.00;;;23.90;45.00;;;;;;5032837;28;20538;-66
2023/06/03 09:12:44;;;;;;;2.17;1.13;;;23.90;45.00;;;;;;5034981;28;20472;-66
2023/06/03 09:15:14;;;;;;;1.73;1.20;;;24.00;45.10;;;;;;5037171;28;20507;-66
2023/06/03 09:17:42;;;;;;;;;;;23.90;45.00;;;;;;5035604;28;20088;-66
2023/06/03 09:20:09;;;;;;;2.20;1.30;;;23.90;45.00;;;;;;5038235;28;19966;-66
2023/06/03 09:22:36;;;;;;;2.45;1.27;;;24.00;45.10;;;;;;5015600;28;20025;-66
2023/06/03 09:25:03;;;;;;;2.10;1.30;;;23.90;45.00;;;;;;5035530;28;20029;-66
2023/06/03 09:27:28;;;;;;;1.88;1.30;;;23.90;45.00;;;;;;5035504;28;20369;-66
2023/06/03 09:29:55;;;;;;;2.03;1.30;;;23.90;45.00;;;;;;5038546;28;20075;-66
2023/06/03 09:32:21;;;;;;;1.48;1.08;;;23.90;45.00;;;;;;5017078;28;20022;-66
2023/06/03 09:34:48;;;;;;;2.35;1.30;;;24.00;45.10;;;;;;5034921;28;20070;-66
2023/06/03 09:37:14;;;;;;;1.70;1.10;;;23.90;45.00;;;;;;5036415;28;20032;-66
2023/06/03 09:39:40;;;;;;;1.65;1.10;;;23.90;45.10;;;;;;5033793;28;20484;-66
2023/06/03 09:42:06;;;;;;;1.75;1.27;;;24.00;45.10;;;;;;5036986;28;20025;-66
2023/06/03 09:44:49;;;;;;;1.73;1.30;;;24.00;45.10;;;;;;5037509;28;20037;-66
2023/06/03 09:47:15;;;;;;;1.83;1.30;;;24.00;45.10;;;;;;5035644;28;20021;-66
2023/06/03 09:50:04;;;;;;;1.80;1.20;;;23.90;45.00;;;;;;5004511;28;20083;-66
2023/06/03 09:52:33;;;;;;;1.70;1.23;;;23.90;45.00;;;;;;5034663;28;20045;-66
2023/06/03 09:55:00;;;;;;;;;;;23.90;45.10;;;;;;5033620;28;20524;-66
2023/06/03 09:57:25;;;;;;;2.00;1.40;;;24.00;45.10;;;;;;5033873;28;19909;-66
2023/06/03 10:00:12;;;;;;;1.98;1.27;;;23.90;45.10;;;;;;5035496;28;20036;-66
2023/06/03 10:02:40;;;;;;;1.73;1.20;;;23.90;45.10;;;;;;5017957;28;20083;-66
2023/06/03 10:05:25;;;;;;;1.63;1.15;;;23.90;45.10;;;;;;5012264;28;20456;-66
2023/06/03 10:07:51;;;;;;;1.90;1.20;;;23.90;45.10;;;;;;5018704;28;20036;-66
2023/06/03 10:10:16;;;;;;;2.38;1.20;;;23.90;45.10;;;;;;5035529;28;20021;-66
2023/06/03 10:12:44;;;;;;;2.15;1.20;;;24.00;45.20;;;;;;5034971;28;20497;-66
2023/06/03 10:15:10;;;;;;;1.70;1.20;;;23.90;45.10;;;;;;5016363;28;20445;-66
2023/06/03 10:17:45;;;;;;;1.60;1.20;;;23.90;45.10;;;;;;5019790;28;20113;-66
2023/06/03 10:20:11;;;;;;;1.90;1.20;;;24.00;45.10;;;;;;5033409;28;20029;-66
2023/06/03 10:22:42;;;;;;;1.50;1.20;;;23.90;45.10;;;;;;5033896;28;20026;-66
2023/06/03 10:25:08;;;;;;;1.80;1.20;;;24.00;45.20;;;;;;5033997;28;20033;-66
2023/06/03 10:27:35;;;;;;;1.98;1.30;;;23.90;45.10;;;;;;5031739;28;20231;-66
2023/06/03 10:30:02;;;;;;;2.17;1.30;;;23.90;45.10;;;;;;5036394;28;20175;-66
2023/06/03 10:32:29;;;;;;;1.77;1.30;;;23.90;45.10;;;;;;5016539;28;20025;-66
2023/06/03 10:34:59;;;;;;;1.58;1.20;;;23.90;45.10;;;;;;5035383;28;20025;-66
2023/06/03 10:37:25;;;;;;;2.15;1.40;;;24.00;45.50;;;;;;5032591;28;20421;-66
2023/06/03 10:39:53;;;;;;;2.08;1.30;;;23.90;45.10;;;;;;5033769;28;20108;-66
2023/06/03 10:42:19;;;;;;;1.70;1.20;;;23.90;45.20;;;;;;5034973;28;20017;-66
2023/06/03 10:44:45;;;;;;;2.10;1.30;;;24.00;45.20;;;;;;5036068;28;20045;-66
2023/06/03 10:47:24;;;;;;;1.85;1.27;;;23.90;45.20;;;;;;5036092;28;20041;-66
2023/06/03 10:50:17;;;;;;;2.40;1.38;;;24.00;45.20;;;;;;5033220;28;20073;-66
2023/06/03 10:52:50;;;;;;;1.60;1.20;;;24.00;45.30;;;;;;4994252;28;20045;-66
2023/06/03 10:55:35;;;;;;;2.45;1.40;;;23.90;45.20;;;;;;5032943;28;20033;-66
2023/06/03 10:58:08;;;;;;;2.03;1.30;;;23.90;45.20;;;;;;5036517;28;20496;-66
2023/06/03 11:01:01;;;;;;;2.20;1.30;;;24.00;45.20;;;;;;5033543;28;20499;-66
2023/06/03 11:03:32;;;;;;;2.10;1.27;;;24.00;45.50;;;;;;5031266;28;20055;-66
2023/06/03 11:06:16;;;;;;;2.15;1.35;;;23.90;45.20;;;;;;5035102;28;20025;-66
2023/06/03 11:09:03;;;;;;;1.75;1.20;;;24.00;45.20;;;;;;5038743;28;20036;-67
2023/06/03 11:11:52;;;;;;;2.20;1.30;;;23.90;45.20;;;;;;5037407;28;20544;-66
2023/06/03 11:14:27;;;;;;;2.13;1.30;;;24.00;45.20;;;;;;5041689;28;20107;-66
2023/06/03 11:16:59;;;;;;;2.28;1.40;;;24.00;45.30;;;;;;5034939;28;20104;-66
2023/06/03 11:19:33;;;;;;;2.10;1.40;;;23.90;45.20;;;;;;5037842;28;20026;-66
2023/06/03 11:22:00;;;;;;;1.83;1.25;;;23.90;45.20;;;;;;5037891;28;20526;-66
2023/06/03 11:24:38;;;;;;;1.85;1.25;;;24.00;45.30;;;;;;5018590;28;20040;-66
2023/06/03 11:27:30;;;;;;;1.83;1.20;;;23.90;45.20;;;;;;5037649;28;20337;-66
2023/06/03 11:29:57;;;;;;;2.03;1.15;;;24.00;45.30;;;;;;5039448;28;20040;-66
2023/06/03 11:32:36;;;;;;;1.73;1.27;;;24.00;45.30;;;;;;5033111;28;20022;-66
2023/06/03 11:35:04;;;;;;;1.80;1.30;;;24.00;45.30;;;;;;5038240;28;20057;-66
2023/06/03 11:37:48;;;;;;;1.80;1.20;;;24.00;45.30;;;;;;5033476;28;20102;-66
2023/06/03 11:40:18;;;;;;;1.67;1.23;;;24.00;45.30;;;;;;5035140;28;20495;-66
2023/06/03 11:42:47;;;;;;;1.83;1.40;;;24.00;45.30;;;;;;5040023;28;20025;-66
2023/06/03 11:45:19;;;;;;;1.80;1.20;;;24.00;45.30;;;;;;5033428;28;20318;-66
2023/06/03 11:47:52;;;;;;;1.83;1.23;;;24.00;45.30;;;;;;5037907;28;20067;-66
2023/06/03 11:50:18;;;;;;;1.88;1.17;;;24.00;45.30;;;;;;5036584;28;20029;-66
2023/06/03 11:52:44;;;;;;;2.28;1.30;;;24.00;45.30;;;;;;5036562;28;20044;-66
2023/06/03 11:55:10;;;;;;;2.13;1.30;;;24.00;45.30;;;;;;5036688;28;20057;-66
2023/06/03 11:57:37;;;;;;;2.03;1.23;;;24.00;45.30;;;;;;5035221;28;20079;-66
2023/06/03 12:00:10;;;;;;;1.70;1.30;;;24.00;45.30;;;;;;5035845;28;20078;-66
2023/06/03 12:02:37;;;;;;;1.85;1.30;;;24.00;45.30;;;;;;5037967;28;20033;-66
2023/06/03 12:05:06;;;;;;;2.38;1.38;;;24.00;45.30;;;;;;5035212;28;20458;-66
2023/06/03 12:07:32;;;;;;;;;;;24.00;45.30;;;;;;5036405;28;20024;-66
2023/06/03 12:09:58;;;;;;;2.25;1.40;;;24.00;45.80;;;;;;5039514;28;19905;-66
2023/06/03 12:12:24;;;;;;;2.03;1.15;;;24.00;45.30;;;;;;5005881;28;20028;-66
2023/06/03 12:14:50;;;;;;;1.80;1.30;;;24.00;45.30;;;;;;5037513;28;20033;-66
2023/06/03 12:17:18;;;;;;;1.80;1.30;;;24.00;45.30;;;;;;5034946;28;20034;-66
2023/06/03 12:19:46;;;;;;;2.33;1.30;;;24.00;45.30;;;;;;5004917;28;20281;-66
2023/06/03 12:22:13;;;;;;;1.80;1.20;;;24.00;45.30;;;;;;5036436;28;20163;-66
2023/06/03 12:24:43;;;;;;;1.88;1.23;;;24.00;45.40;;;;;;5033795;28;20026;-66
2023/06/03 12:27:22;;;;;;;1.83;1.30;;;24.00;45.30;;;;;;5037768;28;20021;-66
2023/06/03 12:29:53;;;;;;;1.90;1.33;;;24.00;45.30;;;;;;5021468;28;20518;-66
2023/06/03 12:32:19;;;;;;;1.90;1.40;;;24.00;45.30;;;;;;5039687;28;20060;-66
2023/06/03 12:34:47;;;;;;;2.00;1.30;;;24.00;45.40;;;;;;5020826;28;20083;-66
2023/06/03 12:37:26;;;;;;;1.67;1.20;;;24.00;45.30;;;;;;5019121;28;20040;-66
2023/06/03 12:39:52;;;;;;;1.88;1.33;;;24.00;45.30;;;;;;5038716;28;20021;-66
2023/06/03 12:42:20;;;;;;;2.28;1.30;;;24.00;45.30;;;;;;5036104;28;20025;-66
2023/06/03 12:44:52;;;;;;;2.17;1.48;;;24.00;45.30;;;;;;5034902;28;20080;-66
2023/06/03 12:47:19;;;;;;;2.60;1.30;;;24.00;45.30;;;;;;5036953;28;20048;-66
2023/06/03 12:50:03;;;;;;;2.08;1.30;;;24.00;45.30;;;;;;5034902;28;20040;-66
2023/06/03 12:52:31;;;;;;;1.90;1.27;;;24.00;45.30;;;;;;5035697;28;20104;-66
2023/06/03 12:54:56;;;;;;;2.13;1.50;;;24.00;45.30;;;;;;5036887;28;20029;-66